createdAt,value
2018-02-16T00:00:03.531Z,50.40
2018-02-16T00:02:31.362Z,53.47
2018-02-16T00:04:58.883Z,48.60
2018-02-16T00:07:26.435Z,50.80
2018-02-16T00:09:53.947Z,54.63
2018-02-16T00:12:21.502Z,56.37
2018-02-16T00:14:49.078Z,47.13
2018-02-16T00:17:16.611Z,53.60
2018-02-16T00:19:44.154Z,54.57
2018-02-16T00:22:13.486Z,48.20
2018-02-16T00:24:41.015Z,54.23
2018-02-16T00:27:08.624Z,50.90
2018-02-16T00:29:36.160Z,49.53
2018-02-16T00:32:03.688Z,53.20
2018-02-16T00:34:31.243Z,55.80
2018-02-16T00:36:58.788Z,54.47
2018-02-16T00:39:26.338Z,57.03
2018-02-16T00:41:53.876Z,50.03
2018-02-16T00:44:21.402Z,52.23
2018-02-16T00:46:48.959Z,50.97
2018-02-16T00:49:16.495Z,53.83
2018-02-16T00:51:44.048Z,61.17
2018-02-16T00:54:11.878Z,57.23
2018-02-16T00:56:39.435Z,56.90
2018-02-16T00:59:07.304Z,67.73
2018-02-16T01:01:34.841Z,57.83
2018-02-16T01:04:02.358Z,57.87
2018-02-16T01:06:29.918Z,55.60
2018-02-16T01:08:57.515Z,56.67
2018-02-16T01:11:25.047Z,53.37
2018-02-16T01:13:52.596Z,62.93
2018-02-16T01:16:20.446Z,54.87
2018-02-16T01:18:48.011Z,52.87
2018-02-16T01:21:15.545Z,50.93
2018-02-16T01:23:43.322Z,64.83
2018-02-16T01:26:11.087Z,54.17
2018-02-16T01:28:38.956Z,59.43
2018-02-16T01:31:06.498Z,55.13
2018-02-16T01:33:34.034Z,58.93
2018-02-16T01:36:01.590Z,55.80
2018-02-16T01:38:29.120Z,50.57
2018-02-16T01:40:56.700Z,55.60
2018-02-16T01:45:58.229Z,54.93
2018-02-16T01:48:25.809Z,63.03
2018-02-16T01:50:53.322Z,69.03
2018-02-16T01:53:21.227Z,79.30
2018-02-16T01:55:48.793Z,54.40
2018-02-16T01:58:16.645Z,61.03
2018-02-16T02:00:44.187Z,65.50
2018-02-16T02:03:11.729Z,66.43
2018-02-16T02:05:39.327Z,53.67
2018-02-16T02:08:06.867Z,62.00
2018-02-16T02:10:34.674Z,56.67
2018-02-16T02:13:02.191Z,70.57
2018-02-16T02:15:29.743Z,67.73
2018-02-16T02:17:57.278Z,56.07
2018-02-16T02:20:24.814Z,68.70
2018-02-16T02:22:52.373Z,61.47
2018-02-16T02:25:19.890Z,58.93
2018-02-16T02:27:47.693Z,60.87
2018-02-16T02:30:15.562Z,66.40
2018-02-16T02:32:43.117Z,54.53
2018-02-16T02:35:10.659Z,62.87
2018-02-16T02:37:38.197Z,59.97
2018-02-16T02:40:05.786Z,65.63
2018-02-16T02:42:33.321Z,68.77
2018-02-16T02:45:00.856Z,69.63
2018-02-16T02:47:28.943Z,63.60
2018-02-16T02:49:56.473Z,67.43
2018-02-16T02:52:24.008Z,60.60
2018-02-16T02:54:51.566Z,74.93
2018-02-16T02:57:19.122Z,66.30
2018-02-16T02:59:46.659Z,68.37
2018-02-16T03:02:14.465Z,59.43
2018-02-16T03:04:42.003Z,77.97
2018-02-16T03:07:09.563Z,66.43
2018-02-16T03:09:37.129Z,63.17
2018-02-16T03:12:04.710Z,62.43
2018-02-16T03:14:32.231Z,65.13
2018-02-16T03:16:59.806Z,76.87
2018-02-16T03:19:27.334Z,66.40
2018-02-16T03:21:55.147Z,74.23
2018-02-16T03:24:22.712Z,63.10
2018-02-16T03:26:50.298Z,70.37
2018-02-16T03:29:17.845Z,66.90
2018-02-16T03:31:45.407Z,70.43
2018-02-16T03:34:12.939Z,70.73
2018-02-16T03:36:40.453Z,61.97
2018-02-16T03:39:07.998Z,72.30
2018-02-16T03:41:35.542Z,74.07
2018-02-16T03:44:03.070Z,66.20
2018-02-16T03:46:30.624Z,66.00
2018-02-16T03:48:58.166Z,71.30
2018-02-16T03:51:25.701Z,79.33
2018-02-16T03:53:53.347Z,71.53
2018-02-16T03:56:20.882Z,85.03
2018-02-16T03:58:48.426Z,69.20
2018-02-16T04:01:15.998Z,75.53
2018-02-16T04:03:43.520Z,75.23
2018-02-16T04:06:11.065Z,76.23
2018-02-16T04:08:38.642Z,75.00
2018-02-16T04:11:06.200Z,71.73
2018-02-16T04:13:33.739Z,71.50
2018-02-16T04:16:01.310Z,76.27
2018-02-16T04:18:28.859Z,67.27
2018-02-16T04:20:56.707Z,75.13
2018-02-16T04:23:24.357Z,83.63
2018-02-16T04:25:52.140Z,83.30
2018-02-16T04:28:20.003Z,79.13
2018-02-16T04:30:47.552Z,75.10
2018-02-16T04:33:15.435Z,91.57
2018-02-16T04:35:42.965Z,80.80
2018-02-16T04:38:10.537Z,89.20
2018-02-16T04:40:38.070Z,84.67
2018-02-16T04:43:05.589Z,95.63
2018-02-16T04:45:33.141Z,88.43
2018-02-16T04:48:00.677Z,68.90
2018-02-16T04:50:28.206Z,80.87
2018-02-16T04:52:56.028Z,80.20
2018-02-16T04:55:23.550Z,83.00
2018-02-16T04:57:51.346Z,84.57
2018-02-16T05:00:18.906Z,97.27
2018-02-16T05:02:46.426Z,81.77
2018-02-16T05:05:13.987Z,92.03
2018-02-16T05:07:41.540Z,92.93
2018-02-16T05:10:09.073Z,93.53
2018-02-16T05:12:36.599Z,93.90
2018-02-16T05:15:04.162Z,97.87
2018-02-16T05:17:31.949Z,106.13
2018-02-16T05:19:59.506Z,90.90
2018-02-16T05:22:27.073Z,93.90
2018-02-16T05:24:54.608Z,95.53
2018-02-16T05:27:22.144Z,88.83
2018-02-16T05:29:49.704Z,101.60
2018-02-16T05:32:17.243Z,90.80
2018-02-16T05:34:44.774Z,93.07
2018-02-16T05:37:12.390Z,89.37
2018-02-16T05:39:40.189Z,90.47
2018-02-16T05:42:07.724Z,96.90
2018-02-16T05:44:35.310Z,97.73
2018-02-16T05:47:02.835Z,110.50
2018-02-16T05:49:30.378Z,91.77
2018-02-16T05:51:57.925Z,84.47
2018-02-16T05:54:25.463Z,90.20
2018-02-16T05:56:53.002Z,78.20
2018-02-16T05:59:20.563Z,84.40
2018-02-16T06:01:48.404Z,78.87
2018-02-16T06:04:16.305Z,80.73
2018-02-16T06:06:43.910Z,83.23
2018-02-16T06:09:11.461Z,73.17
2018-02-16T06:11:38.990Z,75.90
2018-02-16T06:14:06.617Z,79.27
2018-02-16T06:16:34.297Z,86.97
2018-02-16T06:19:01.992Z,86.37
2018-02-16T06:21:29.596Z,73.87
2018-02-16T06:23:57.138Z,79.70
2018-02-16T06:26:24.658Z,79.80
2018-02-16T06:28:52.260Z,69.80
2018-02-16T06:31:20.145Z,71.37
2018-02-16T06:33:47.654Z,79.63
2018-02-16T06:38:49.122Z,66.87
2018-02-16T06:41:16.690Z,72.53
2018-02-16T06:43:44.251Z,79.23
2018-02-16T06:46:11.784Z,68.93
2018-02-16T06:48:39.407Z,60.23
2018-02-16T06:51:06.922Z,76.87
2018-02-16T06:53:34.798Z,74.23
2018-02-16T06:56:02.408Z,57.57
2018-02-16T06:58:29.949Z,68.10
2018-02-16T07:00:57.513Z,59.23
2018-02-16T07:03:25.385Z,65.30
2018-02-16T07:05:53.119Z,57.67
2018-02-16T07:08:20.645Z,69.33
2018-02-16T07:10:48.435Z,65.87
2018-02-16T07:13:16.015Z,60.90
2018-02-16T07:15:43.537Z,50.90
2018-02-16T07:18:11.124Z,62.00
2018-02-16T07:20:38.650Z,55.20
2018-02-16T07:23:06.188Z,49.00
2018-02-16T07:25:33.770Z,51.07
2018-02-16T07:28:01.467Z,56.70
2018-02-16T07:30:29.820Z,49.73
2018-02-16T07:32:57.391Z,49.43
2018-02-16T07:35:24.930Z,56.93
2018-02-16T07:37:52.543Z,50.83
2018-02-16T07:40:20.723Z,54.90
2018-02-16T07:42:48.264Z,48.43
2018-02-16T07:45:15.806Z,54.73
2018-02-16T07:47:43.368Z,46.20
2018-02-16T07:50:10.930Z,57.13
2018-02-16T07:52:38.457Z,46.33
2018-02-16T07:55:06.015Z,44.27
2018-02-16T07:57:33.548Z,44.10
2018-02-16T08:00:01.082Z,38.03
2018-02-16T08:02:29.832Z,43.00
2018-02-16T08:04:57.809Z,46.97
2018-02-16T08:07:25.333Z,39.00
2018-02-16T08:09:52.917Z,56.87
2018-02-16T08:12:20.438Z,35.10
2018-02-16T08:14:48.741Z,38.30
2018-02-16T08:17:16.314Z,57.13
2018-02-16T08:19:43.881Z,36.93
2018-02-16T08:22:11.684Z,37.77
2018-02-16T08:24:39.259Z,35.90
2018-02-16T08:27:06.928Z,41.60
2018-02-16T08:29:34.485Z,47.93
2018-02-16T08:32:06.223Z,28.83
2018-02-16T08:34:33.759Z,41.27
2018-02-16T08:37:01.330Z,35.03
2018-02-16T08:39:28.925Z,30.00
2018-02-16T08:41:56.457Z,30.73
2018-02-16T08:44:24.288Z,35.83
2018-02-16T08:46:53.304Z,32.63
2018-02-16T08:49:20.866Z,39.80
2018-02-16T08:51:48.537Z,43.47
2018-02-16T08:54:16.178Z,32.20
2018-02-16T08:56:43.806Z,26.17
2018-02-16T08:59:11.342Z,36.33
2018-02-16T09:01:39.023Z,26.93
2018-02-16T09:04:06.564Z,36.83
2018-02-16T09:06:34.208Z,35.17
2018-02-16T09:09:01.813Z,45.67
2018-02-16T09:11:29.686Z,35.50
2018-02-16T09:13:57.649Z,34.57
2018-02-16T09:16:25.202Z,32.30
2018-02-16T09:18:52.735Z,24.20
2018-02-16T09:21:20.292Z,33.40
2018-02-16T09:23:47.870Z,34.40
2018-02-16T09:26:15.641Z,30.57
2018-02-16T09:28:43.506Z,26.17
2018-02-16T09:31:11.070Z,33.40
2018-02-16T09:33:38.934Z,32.10
2018-02-16T09:36:10.703Z,40.10
2018-02-16T09:38:38.284Z,43.00
2018-02-16T09:41:05.843Z,31.60
2018-02-16T09:43:33.480Z,26.63
2018-02-16T09:46:01.006Z,26.80
2018-02-16T09:48:28.558Z,28.13
2018-02-16T09:50:56.158Z,25.00
2018-02-16T09:53:23.684Z,39.80
2018-02-16T09:55:51.237Z,34.37
2018-02-16T09:58:18.794Z,37.13
2018-02-16T10:00:46.420Z,26.77
2018-02-16T10:03:13.978Z,33.27
2018-02-16T10:05:41.536Z,36.33
2018-02-16T10:08:09.211Z,28.90
2018-02-16T10:10:36.759Z,34.63
2018-02-16T10:13:04.345Z,48.87
2018-02-16T10:15:31.941Z,34.70
2018-02-16T10:17:59.461Z,31.27
2018-02-16T10:20:27.081Z,32.73
2018-02-16T10:22:54.973Z,28.50
2018-02-16T10:25:22.566Z,27.73
2018-02-16T10:27:50.497Z,27.73
2018-02-16T10:30:18.370Z,38.33
2018-02-16T10:32:45.904Z,39.13
2018-02-16T10:35:13.480Z,33.77
2018-02-16T10:37:41.032Z,42.63
2018-02-16T10:40:08.813Z,41.53
2018-02-16T10:42:36.431Z,31.93
2018-02-16T10:45:03.996Z,40.33
2018-02-16T10:47:31.591Z,49.60
2018-02-16T10:49:59.179Z,41.13
2018-02-16T10:52:27.024Z,44.60
2018-02-16T10:54:54.554Z,30.67
2018-02-16T10:57:22.122Z,48.53
2018-02-16T10:59:50.013Z,51.30
2018-02-16T11:02:23.310Z,46.30
2018-02-16T11:04:56.551Z,39.67
2018-02-16T11:07:36.523Z,41.07
2018-02-16T11:10:04.081Z,41.23
2018-02-16T11:12:31.702Z,43.30
2018-02-16T11:14:59.311Z,37.10
2018-02-16T11:17:26.860Z,42.73
2018-02-16T11:19:54.470Z,40.30
2018-02-16T11:22:22.007Z,42.90
2018-02-16T11:24:49.536Z,53.70
2018-02-16T11:27:17.203Z,44.10
2018-02-16T11:29:44.783Z,46.23
2018-02-16T11:32:12.602Z,50.90
2018-02-16T11:34:40.206Z,54.33
2018-02-16T11:37:07.765Z,46.47
2018-02-16T11:39:35.322Z,48.43
2018-02-16T11:42:02.919Z,43.90
2018-02-16T11:44:30.491Z,39.13
2018-02-16T11:46:58.351Z,38.37
2018-02-16T11:49:25.875Z,36.03
2018-02-16T11:51:53.458Z,41.70
2018-02-16T11:54:20.980Z,48.40
2018-02-16T11:56:48.522Z,38.63
2018-02-16T11:59:16.352Z,38.53
2018-02-16T12:01:43.926Z,47.57
2018-02-16T12:04:11.778Z,53.47
2018-02-16T12:06:39.782Z,37.63
2018-02-16T12:09:07.341Z,42.40
2018-02-16T12:11:34.897Z,37.40
2018-02-16T12:14:02.738Z,40.27
2018-02-16T12:16:30.279Z,41.50
2018-02-16T12:18:57.823Z,45.13
2018-02-16T12:21:25.629Z,49.20
2018-02-16T12:23:53.500Z,42.90
2018-02-16T12:26:21.028Z,44.53
2018-02-16T12:28:48.611Z,38.33
2018-02-16T12:31:16.135Z,35.43
2018-02-16T12:33:43.677Z,42.17
2018-02-16T12:36:11.237Z,39.83
2018-02-16T12:38:38.770Z,44.40
2018-02-16T12:41:06.311Z,54.43
2018-02-16T12:43:33.857Z,46.93
2018-02-16T12:46:01.399Z,51.33
2018-02-16T12:48:28.938Z,47.27
2018-02-16T12:50:56.765Z,56.50
2018-02-16T12:53:24.632Z,50.13
2018-02-16T12:55:52.398Z,41.97
2018-02-16T12:58:19.970Z,44.67
2018-02-16T13:00:47.485Z,41.43
2018-02-16T13:03:15.017Z,43.27
2018-02-16T13:05:42.590Z,37.87
2018-02-16T13:08:10.152Z,45.73
2018-02-16T13:10:37.694Z,35.07
2018-02-16T13:13:05.266Z,36.80
2018-02-16T13:15:32.807Z,44.23
2018-02-16T13:18:00.688Z,32.67
2018-02-16T13:20:28.256Z,41.77
2018-02-16T13:22:55.999Z,38.40
2018-02-16T13:25:23.525Z,39.03
2018-02-16T13:27:51.140Z,43.70
2018-02-16T13:30:19.882Z,35.10
2018-02-16T13:32:47.446Z,40.43
2018-02-16T13:35:15.016Z,33.23
2018-02-16T13:37:42.558Z,50.47
2018-02-16T13:40:10.143Z,35.23
2018-02-16T13:42:37.724Z,33.93
2018-02-16T13:45:05.245Z,37.57
2018-02-16T13:47:32.927Z,38.03
2018-02-16T13:50:00.533Z,28.73
2018-02-16T13:52:28.365Z,34.90
2018-02-16T13:54:55.885Z,30.03
2018-02-16T13:57:23.458Z,46.07
2018-02-16T13:59:51.066Z,32.67
2018-02-16T14:02:18.891Z,28.23
2018-02-16T14:04:46.450Z,30.23
2018-02-16T14:07:14.012Z,30.50
2018-02-16T14:09:41.569Z,26.80
2018-02-16T14:12:09.450Z,42.53
2018-02-16T14:14:37.310Z,28.57
2018-02-16T14:17:04.826Z,33.03
2018-02-16T14:19:32.740Z,22.50
2018-02-16T14:22:00.505Z,53.90
2018-02-16T14:24:28.268Z,26.07
2018-02-16T14:26:55.881Z,27.40
2018-02-16T14:29:23.415Z,35.10
2018-02-16T14:31:51.276Z,36.97
2018-02-16T14:34:18.869Z,29.57
2018-02-16T14:36:46.422Z,25.83
2018-02-16T14:39:13.953Z,31.13
2018-02-16T14:41:41.571Z,28.57
2018-02-16T14:44:09.162Z,35.77
2018-02-16T14:46:36.656Z,33.10
2018-02-16T14:49:04.204Z,20.73
2018-02-16T14:51:31.941Z,27.60
2018-02-16T14:53:59.517Z,35.77
2018-02-16T14:56:27.195Z,29.90
2018-02-16T14:58:54.731Z,32.27
2018-02-16T15:01:22.297Z,25.13
2018-02-16T15:03:49.850Z,33.80
2018-02-16T15:06:17.408Z,26.23
2018-02-16T15:08:44.943Z,34.17
2018-02-16T15:11:12.525Z,33.37
2018-02-16T15:13:40.130Z,30.73
2018-02-16T15:16:07.661Z,35.23
2018-02-16T15:18:35.235Z,30.47
2018-02-16T15:21:03.104Z,19.53
2018-02-16T15:23:30.677Z,26.40
2018-02-16T15:25:58.410Z,23.17
2018-02-16T15:28:26.134Z,26.73
2018-02-16T15:30:53.667Z,24.90
2018-02-16T15:33:21.232Z,35.13
2018-02-16T15:35:48.759Z,24.90
2018-02-16T15:38:16.296Z,29.83
2018-02-16T15:40:43.898Z,28.90
2018-02-16T15:43:11.515Z,27.00
2018-02-16T15:45:39.072Z,30.13
2018-02-16T15:48:06.634Z,31.40
2018-02-16T15:50:34.195Z,25.90
2018-02-16T15:53:01.722Z,26.90
2018-02-16T15:55:29.492Z,27.40
2018-02-16T15:57:57.033Z,34.77
2018-02-16T16:00:24.583Z,27.60
2018-02-16T16:02:52.175Z,26.10
2018-02-16T16:05:19.744Z,23.77
2018-02-16T16:07:47.278Z,23.53
2018-02-16T16:10:14.883Z,30.20
2018-02-16T16:12:42.414Z,29.93
2018-02-16T16:15:09.959Z,26.77
2018-02-16T16:17:37.570Z,33.30
2018-02-16T16:20:05.099Z,29.93
2018-02-16T16:22:32.706Z,23.10
2018-02-16T16:25:00.320Z,25.03
2018-02-16T16:27:28.128Z,27.20
2018-02-16T16:29:55.674Z,21.60
2018-02-16T16:32:23.256Z,35.50
2018-02-16T16:34:50.822Z,31.80
2018-02-16T16:37:18.380Z,38.30
2018-02-16T16:39:45.991Z,26.43
2018-02-16T16:42:13.513Z,28.77
2018-02-16T16:44:41.086Z,29.73
2018-02-16T16:47:08.702Z,30.40
2018-02-16T16:49:37.430Z,40.80
2018-02-16T16:52:05.643Z,33.17
2018-02-16T16:54:33.753Z,29.93
2018-02-16T16:57:01.369Z,36.00
2018-02-16T16:59:28.918Z,28.37
2018-02-16T17:01:56.472Z,34.03
2018-02-16T17:04:23.999Z,34.03
2018-02-16T17:06:51.534Z,39.40
2018-02-16T17:09:19.134Z,31.40
2018-02-16T17:11:46.770Z,28.07
2018-02-16T17:14:14.399Z,35.67
2018-02-16T17:16:41.986Z,33.07
2018-02-16T17:19:09.627Z,26.27
2018-02-16T17:21:37.891Z,25.93
2018-02-16T17:24:06.274Z,30.10
2018-02-16T17:26:34.644Z,37.40
2018-02-16T17:29:02.773Z,30.83
2018-02-16T17:31:30.865Z,38.17
2018-02-16T17:33:58.395Z,34.83
2018-02-16T17:36:26.204Z,45.60
2018-02-16T17:38:53.876Z,27.90
2018-02-16T17:41:21.413Z,27.37
2018-02-16T17:43:48.937Z,32.13
2018-02-16T17:46:16.542Z,39.30
2018-02-16T17:48:44.107Z,34.93
2018-02-16T17:51:13.434Z,27.83
2018-02-16T17:53:42.451Z,37.43
2018-02-16T17:56:10.189Z,47.63
2018-02-16T17:58:38.731Z,33.57
2018-02-16T18:01:07.573Z,40.73
2018-02-16T18:03:35.379Z,31.67
2018-02-16T18:06:02.922Z,34.33
2018-02-16T18:08:30.497Z,26.90
2018-02-16T18:10:59.254Z,39.27
2018-02-16T18:13:26.847Z,45.13
2018-02-16T18:15:55.136Z,37.97
2018-02-16T18:18:23.476Z,32.23
2018-02-16T18:20:51.246Z,39.87
2018-02-16T18:23:19.359Z,33.57
2018-02-16T18:25:47.090Z,38.43
2018-02-16T18:28:14.806Z,39.77
2018-02-16T18:30:42.664Z,33.30
2018-02-16T18:33:10.218Z,38.47
2018-02-16T18:35:37.765Z,40.70
2018-02-16T18:38:05.713Z,32.67
2018-02-16T18:40:33.262Z,44.30
2018-02-16T18:43:00.838Z,28.53
2018-02-16T18:45:28.409Z,44.43
2018-02-16T18:47:55.963Z,34.67
2018-02-16T18:50:23.485Z,37.33
2018-02-16T18:52:51.851Z,24.20
2018-02-16T18:55:19.380Z,43.80
2018-02-16T18:57:46.945Z,40.70
2018-02-16T19:00:14.512Z,29.93
2018-02-16T19:02:42.391Z,36.13
2018-02-16T19:05:10.368Z,37.53
2018-02-16T19:07:37.905Z,40.80
2018-02-16T19:10:05.446Z,31.43
2018-02-16T19:12:32.997Z,36.87
2018-02-16T19:15:00.544Z,41.70
2018-02-16T19:17:28.724Z,35.90
2018-02-16T19:19:56.253Z,34.53
2018-02-16T19:22:23.847Z,38.83
2018-02-16T19:24:51.417Z,35.30
2018-02-16T19:27:19.344Z,32.97
2018-02-16T19:29:48.070Z,36.47
2018-02-16T19:32:16.036Z,37.43
2018-02-16T19:34:43.558Z,35.30
2018-02-16T19:37:11.133Z,34.93
2018-02-16T19:39:49.591Z,38.87
2018-02-16T19:42:18.092Z,38.53
2018-02-16T19:44:45.608Z,31.73
2018-02-16T19:47:13.143Z,29.23
2018-02-16T19:49:40.707Z,32.60
2018-02-16T19:52:08.255Z,55.87
2018-02-16T19:54:35.799Z,35.50
2018-02-16T19:57:03.369Z,38.23
2018-02-16T19:59:30.969Z,43.10
2018-02-16T20:01:58.547Z,44.37
2018-02-16T20:04:26.114Z,38.47
2018-02-16T20:06:53.670Z,33.30
2018-02-16T20:09:21.216Z,46.60
2018-02-16T20:11:48.787Z,37.90
2018-02-16T20:14:16.315Z,52.50
2018-02-16T20:16:43.951Z,41.27
2018-02-16T20:19:11.567Z,39.30
2018-02-16T20:21:39.126Z,39.80
2018-02-16T20:24:06.664Z,34.70
2018-02-16T20:26:34.234Z,37.27
2018-02-16T20:29:02.071Z,45.67
2018-02-16T20:31:29.635Z,42.83
2018-02-16T20:33:57.232Z,36.40
2018-02-16T20:36:24.786Z,39.37
2018-02-16T20:38:52.329Z,41.23
2018-02-16T20:41:19.886Z,30.40
2018-02-16T20:43:47.424Z,43.27
2018-02-16T20:46:14.978Z,33.53
2018-02-16T20:48:42.583Z,39.50
2018-02-16T20:51:10.421Z,39.00
2018-02-16T20:53:37.986Z,34.17
2018-02-16T20:56:05.533Z,48.73
2018-02-16T20:58:33.114Z,44.10
2018-02-16T21:01:01.082Z,35.93
2018-02-16T21:03:28.638Z,34.43
2018-02-16T21:05:56.220Z,31.97
2018-02-16T21:08:24.059Z,39.33
2018-02-16T21:10:51.623Z,41.23
2018-02-16T21:13:19.194Z,42.13
2018-02-16T21:15:47.057Z,38.93
2018-02-16T21:18:14.618Z,33.87
2018-02-16T21:20:42.184Z,45.10
2018-02-16T21:23:09.742Z,47.17
2018-02-16T21:25:37.303Z,35.57
2018-02-16T21:28:04.884Z,36.97
2018-02-16T21:30:32.402Z,34.03
2018-02-16T21:33:00.285Z,44.20
2018-02-16T21:35:27.838Z,45.70
2018-02-16T21:37:55.416Z,41.40
2018-02-16T21:40:22.993Z,34.37
2018-02-16T21:42:50.542Z,38.63
2018-02-16T21:45:18.068Z,38.07
2018-02-16T21:47:45.640Z,38.63
2018-02-16T21:50:13.175Z,35.93
2018-02-16T21:52:40.783Z,30.93
2018-02-16T21:55:08.391Z,37.90
2018-02-16T21:57:35.977Z,39.30
2018-02-16T22:00:03.557Z,40.07
2018-02-16T22:02:31.201Z,32.53
2018-02-16T22:04:58.722Z,32.90
2018-02-16T22:07:26.242Z,35.93
2018-02-16T22:09:53.801Z,34.40
2018-02-16T22:12:21.323Z,41.23
2018-02-16T22:14:48.866Z,37.10
2018-02-16T22:17:16.435Z,36.77
2018-02-16T22:19:43.950Z,39.90
2018-02-16T22:22:11.489Z,42.33
2018-02-16T22:24:39.049Z,40.33
2018-02-16T22:27:06.577Z,36.07
2018-02-16T22:29:34.089Z,30.43
2018-02-16T22:32:01.665Z,40.77
2018-02-16T22:34:29.194Z,46.43
2018-02-16T22:36:56.730Z,35.37
2018-02-16T22:39:24.281Z,31.87
2018-02-16T22:41:51.837Z,36.03
2018-02-16T22:44:19.844Z,34.60
2018-02-16T22:46:47.743Z,33.50
2018-02-16T22:49:15.287Z,49.53
2018-02-16T22:51:42.840Z,34.20
2018-02-16T22:54:10.719Z,37.03
2018-02-16T22:56:38.269Z,31.90
2018-02-16T22:59:05.825Z,49.13
2018-02-16T23:01:33.406Z,35.63
2018-02-16T23:04:01.028Z,39.67
2018-02-16T23:06:28.658Z,32.77
2018-02-16T23:08:57.088Z,45.87
2018-02-16T23:11:24.701Z,33.60
2018-02-16T23:13:52.534Z,58.57
2018-02-16T23:16:20.079Z,38.50
2018-02-16T23:18:47.804Z,42.17
2018-02-16T23:21:15.387Z,33.27
2018-02-16T23:23:42.947Z,38.60
2018-02-16T23:26:10.743Z,27.23
2018-02-16T23:28:38.513Z,37.63
2018-02-16T23:31:06.089Z,49.20
2018-02-16T23:35:54.850Z,48.90
2018-02-16T23:38:22.416Z,38.83
2018-02-16T23:40:50.187Z,32.60
2018-02-16T23:43:17.669Z,34.03
2018-02-16T23:45:45.211Z,39.10
2018-02-16T23:48:12.749Z,44.23
2018-02-16T23:50:40.303Z,33.37
2018-02-16T23:53:07.863Z,28.87
2018-02-16T23:55:35.423Z,39.97
2018-02-16T23:58:03.050Z,39.90
